Time;durP1;ratioP1;P1;durP2;ratioP2;P2;SDS_P1;SDS_P2;PMS_P1;PMS_P2;Temp;Humidity;BMP_temperature;BMP_pressure;BME280_temperature;BME280_humidity;BME280_pressure;Samples;Min_cycle;Max_cycle;Signal;HPM_P1;HPM_P2
2022/06/20 00:01:24;;;;;;;;;40.50;32.50;;;;;17.80;72.19;100844.00;6243630;22;45314;-84
2022/06/20 00:03:51;;;;;;;;;37.00;31.75;;;;;17.82;71.52;100860.53;6242040;22;45373;-85
2022/06/20 00:06:19;;;;;;;;;43.25;29.75;;;;;17.83;72.49;100878.06;6242791;22;45305;-84
2022/06/20 00:08:45;;;;;;;;;42.00;32.25;;;;;17.88;73.54;100899.72;6241880;22;45604;-85
2022/06/20 00:11:15;;;;;;;;;36.50;32.75;;;;;17.91;72.21;100911.88;6242049;22;45559;-85
2022/06/20 00:13:44;;;;;;;;;39.50;33.75;;;;;17.98;72.63;100915.84;6242726;22;45643;-86
2022/06/20 00:16:12;;;;;;;;;35.00;32.00;;;;;18.03;71.93;100913.78;6241855;22;45367;-87
2022/06/20 00:18:38;;;;;;;;;43.50;35.00;;;;;18.05;73.04;100901.38;6241449;22;45544;-87
2022/06/20 00:21:03;;;;;;;;;45.75;34.75;;;;;18.00;72.32;100900.81;6241520;22;45259;-86
2022/06/20 00:23:29;;;;;;;;;38.75;30.50;;;;;18.03;72.37;100902.41;6243287;22;45656;-86
2022/06/20 00:25:54;;;;;;;;;35.75;30.00;;;;;18.03;71.73;100887.44;6241960;22;63019;-86
2022/06/20 00:28:20;;;;;;;;;32.75;30.25;;;;;18.04;71.18;100873.34;6243372;22;46514;-86
2022/06/20 00:30:46;;;;;;;;;37.75;30.75;;;;;18.02;72.57;100859.44;6266515;22;61456;-86
2022/06/20 00:33:12;;;;;;;;;40.00;29.50;;;;;17.97;72.03;100840.41;6243321;22;45366;-86
2022/06/20 00:35:37;;;;;;;;;31.00;29.25;;;;;17.95;72.10;100881.78;6241165;22;45363;-86
2022/06/20 00:38:05;;;;;;;;;39.00;31.75;;;;;17.95;73.87;100895.78;6241979;22;56154;-87
2022/06/20 00:40:35;;;;;;;;;31.50;30.00;;;;;17.95;71.96;100908.97;6241750;22;45795;-87
2022/06/20 00:43:02;;;;;;;;;41.25;34.50;;;;;17.97;72.32;100895.72;6242604;22;45391;-87
2022/06/20 00:45:31;;;;;;;;;44.00;30.25;;;;;17.98;73.31;100894.78;6241879;22;45506;-86
2022/06/20 00:48:04;;;;;;;;;37.50;32.75;;;;;17.99;72.87;100907.00;6243924;22;45356;-86
2022/06/20 00:50:32;;;;;;;;;36.50;31.50;;;;;18.04;72.68;100906.75;6245434;22;45783;-87
2022/06/20 00:53:06;;;;;;;;;40.50;33.00;;;;;18.05;72.47;100901.38;6274099;22;45385;-85
2022/06/20 00:55:37;;;;;;;;;38.50;32.25;;;;;18.07;72.71;100890.75;6247023;22;45239;-86
2022/06/20 00:58:10;;;;;;;;;43.50;33.25;;;;;18.05;72.82;100901.38;6246624;22;48144;-86
2022/06/20 01:00:38;;;;;;;;;38.75;31.25;;;;;18.05;72.24;100922.44;6246359;22;45555;-86
2022/06/20 01:03:11;;;;;;;;;36.00;31.25;;;;;18.05;73.34;100937.41;6246590;22;45425;-86
2022/06/20 01:05:48;;;;;;;;;33.25;30.50;;;;;18.06;73.44;100939.97;6246641;22;45403;-86
2022/06/20 01:08:25;;;;;;;;;39.75;34.50;;;;;18.08;73.52;100935.44;6246306;22;45361;-86
2022/06/20 01:11:03;;;;;;;;;34.50;27.50;;;;;18.13;73.19;100936.03;6246096;22;45283;-86
2022/06/20 01:13:29;;;;;;;;;39.50;32.25;;;;;18.18;73.33;100930.50;6273823;22;45296;-85
2022/06/20 01:15:59;;;;;;;;;41.50;31.25;;;;;18.18;73.05;100928.72;6246438;22;45619;-86
2022/06/20 01:18:29;;;;;;;;;39.75;30.50;;;;;18.22;73.32;100921.50;6273779;22;45470;-87
2022/06/20 01:20:56;;;;;;;;;34.25;30.50;;;;;18.25;73.38;100923.94;6246371;22;45688;-87
2022/06/20 01:23:45;;;;;;;;;35.00;29.50;;;;;18.29;73.08;100914.06;6247262;22;45293;-87
2022/06/20 01:26:49;;;;;;;;;35.75;30.75;;;;;18.28;72.36;100894.78;6247052;22;45242;-88
2022/06/20 01:29:15;;;;;;;;;35.50;32.00;;;;;18.26;72.25;100880.84;6246375;22;47239;-88
2022/06/20 01:31:45;;;;;;;;;33.00;29.25;;;;;18.20;72.77;100868.03;6247501;22;45356;-87
2022/06/20 01:34:13;;;;;;;;;30.75;29.00;;;;;18.16;72.78;100856.84;6246647;22;45346;-88
2022/06/20 01:39:25;;;;;;;;;31.50;27.25;;;;;18.07;72.23;100802.06;6251555;22;45440;-89
2022/06/20 01:44:53;;;;;;;;;34.50;32.00;;;;;17.92;72.01;100745.88;6274764;22;45289;-89
2022/06/20 01:47:22;;;;;;;;;34.50;31.50;;;;;17.85;72.75;100730.53;6220797;22;45508;-88
2022/06/20 01:49:53;;;;;;;;;32.00;29.00;;;;;17.78;72.95;100716.84;6246075;22;46443;-88
2022/06/20 01:52:36;;;;;;;;;33.25;27.25;;;;;17.74;72.66;100689.03;6246548;22;45330;-88
2022/06/20 01:55:14;;;;;;;;;32.25;28.00;;;;;17.68;73.02;100642.00;6246658;22;45299;-88
2022/06/20 01:57:43;;;;;;;;;36.75;29.50;;;;;17.62;72.98;100606.34;6247680;22;45263;-87
2022/06/20 02:00:23;;;;;;;;;33.25;27.25;;;;;17.52;73.68;100582.38;6246917;22;46453;-87
2022/06/20 02:02:52;;;;;;;;;33.75;29.00;;;;;17.47;73.83;100531.81;6273504;22;45365;-86
2022/06/20 02:05:23;;;;;;;;;35.25;30.00;;;;;17.43;73.45;100501.38;6247436;22;45368;-87
2022/06/20 02:07:49;;;;;;;;;31.75;27.00;;;;;17.36;74.02;100494.81;6247132;22;45422;-87
2022/06/20 02:10:22;;;;;;;;;33.75;28.00;;;;;17.30;74.09;100493.38;6246956;22;50621;-87
2022/06/20 02:12:52;;;;;;;;;33.00;26.50;;;;;17.25;75.53;100495.44;6247004;22;45393;-86
2022/06/20 02:15:27;;;;;;;;;29.25;28.00;;;;;17.21;74.96;100536.03;6221677;22;45287;-87
2022/06/20 02:17:53;;;;;;;;;36.00;31.75;;;;;17.17;75.38;100597.66;6248899;22;45284;-87
2022/06/20 02:20:25;;;;;;;;;33.00;27.50;;;;;17.18;75.84;100662.47;6247663;22;45393;-87
2022/06/20 02:22:52;;;;;;;;;37.50;30.50;;;;;17.22;76.36;100680.63;6247162;22;45235;-87
2022/06/20 02:25:24;;;;;;;;;29.00;26.50;;;;;17.31;75.43;100696.78;6247223;22;57250;-87
2022/06/20 02:28:02;;;;;;;;;34.50;30.00;;;;;17.32;74.91;100717.75;6247798;22;45478;-87
2022/06/20 02:30:29;;;;;;;;;28.25;27.75;;;;;17.33;75.80;100734.41;6247016;22;46227;-87
2022/06/20 02:33:06;;;;;;;;;29.00;25.00;;;;;17.33;75.27;100737.03;6246961;22;45792;-87
2022/06/20 02:35:32;;;;;;;;;26.00;24.25;;;;;17.41;75.21;100740.06;6248096;22;45328;-86
2022/06/20 02:37:58;;;;;;;;;32.25;26.75;;;;;17.48;74.22;100751.94;6247171;22;45267;-86
2022/06/20 02:40:25;;;;;;;;;25.50;23.25;;;;;17.51;75.05;100764.91;6271957;22;73064;-85
2022/06/20 02:43:16;;;;;;;;;29.00;25.25;;;;;17.56;73.81;100783.06;6247747;22;45314;-87
2022/06/20 02:45:43;;;;;;;;;26.00;22.25;;;;;17.57;74.41;100793.50;6243493;22;45437;-86
2022/06/20 02:48:10;;;;;;;;;29.50;26.00;;;;;17.59;75.32;100806.59;6220906;22;45460;-86
2022/06/20 02:50:40;;;;;;;;;30.25;24.25;;;;;17.61;73.54;100805.56;6246482;22;46152;-86
2022/06/20 02:53:12;;;;;;;;;25.00;23.50;;;;;17.65;74.17;100810.66;6247164;22;45796;-87
2022/06/20 02:55:38;;;;;;;;;26.75;24.25;;;;;17.66;74.23;100804.44;6247001;22;45275;-86
2022/06/20 02:58:07;;;;;;;;;28.25;24.00;;;;;17.68;74.21;100794.66;6221306;22;45440;-85
2022/06/20 03:00:39;;;;;;;;;30.00;26.00;;;;;17.69;73.83;100776.16;6246143;22;45321;-85
2022/06/20 03:03:15;;;;;;;;;27.00;25.00;;;;;17.72;74.26;100791.78;6247173;22;45437;-85
2022/06/20 03:05:40;;;;;;;;;30.00;23.50;;;;;17.73;74.32;100804.00;6247147;22;45257;-85
2022/06/20 03:08:06;;;;;;;;;25.75;22.50;;;;;17.73;74.33;100813.69;6274092;22;54913;-85
2022/06/20 03:10:46;;;;;;;;;27.25;25.25;;;;;17.77;73.63;100823.97;6245901;22;56873;-85
2022/06/20 03:13:13;;;;;;;;;31.25;25.25;;;;;17.79;74.08;100832.63;6246417;22;45228;-85
2022/06/20 03:15:39;;;;;;;;;33.75;25.25;;;;;17.80;74.02;100834.28;6274730;22;45235;-85
2022/06/20 03:18:05;;;;;;;;;29.25;25.50;;;;;17.84;74.04;100840.25;6249089;22;45253;-85
2022/06/20 03:20:31;;;;;;;;;28.50;25.50;;;;;17.87;73.14;100855.91;6248266;22;45379;-85
2022/06/20 03:23:10;;;;;;;;;28.50;25.75;;;;;17.88;73.43;100864.63;6274708;22;66391;-85
2022/06/20 03:25:38;;;;;;;;;25.75;25.25;;;;;17.91;73.40;100860.03;6275657;22;45295;-86
2022/06/20 03:28:04;;;;;;;;;29.00;25.00;;;;;17.85;73.81;100865.69;6249096;22;45502;-85
2022/06/20 03:30:35;;;;;;;;;34.25;28.00;;;;;17.79;73.46;100876.50;6220829;22;69800;-85
2022/06/20 03:33:04;;;;;;;;;37.00;30.00;;;;;17.71;72.82;100884.00;6247437;22;45735;-85
2022/06/20 03:35:30;;;;;;;;;30.00;25.75;;;;;17.69;73.40;100881.44;6248593;22;45229;-86
2022/06/20 03:38:01;;;;;;;;;30.50;24.75;;;;;17.67;72.78;100887.75;6275556;22;45438;-86
2022/06/20 03:40:26;;;;;;;;;30.50;26.25;;;;;17.62;73.03;100893.25;6247939;22;46142;-85
2022/06/20 03:42:53;;;;;;;;;35.25;28.00;;;;;17.54;72.89;100901.59;6275238;22;45187;-85
2022/06/20 03:45:19;;;;;;;;;34.00;26.25;;;;;17.47;72.04;100896.75;6248057;22;45263;-86
2022/06/20 03:47:54;;;;;;;;;35.00;29.75;;;;;17.36;72.77;100903.44;6247784;22;56257;-85
2022/06/20 03:50:25;;;;;;;;;33.50;31.00;;;;;17.31;72.10;100915.16;6247643;22;47424;-86
2022/06/20 03:53:07;;;;;;;;;35.25;31.50;;;;;17.21;72.65;100899.84;6222366;22;45851;-85
2022/06/20 03:55:45;;;;;;;;;31.25;30.00;;;;;17.16;72.82;100901.91;6248557;22;45347;-86
2022/06/20 03:58:22;;;;;;;;;33.75;29.25;;;;;17.15;73.51;100908.09;6248276;22;45327;-86
2022/06/20 04:00:56;;;;;;;;;40.75;30.75;;;;;17.14;73.33;100918.69;6275067;22;45266;-86
2022/06/20 04:03:34;;;;;;;;;35.25;26.00;;;;;17.11;72.89;100913.63;6247714;22;45425;-85
2022/06/20 04:06:12;;;;;;;;;34.00;31.00;;;;;17.08;73.83;100927.75;6247898;22;45184;-85
2022/06/20 04:11:36;;;;;;;;;34.00;28.75;;;;;17.05;73.20;100917.41;6252439;22;45902;-86
2022/06/20 04:14:04;;;;;;;;;29.50;22.50;;;;;17.05;73.05;100921.81;6247291;22;45772;-86
2022/06/20 04:16:43;;;;;;;;;31.00;28.00;;;;;17.00;73.50;100928.16;6275249;22;45456;-86
2022/06/20 04:19:11;;;;;;;;;33.50;29.25;;;;;17.01;72.89;100926.38;6249012;22;45338;-86
2022/06/20 04:21:43;;;;;;;;;31.00;25.00;;;;;16.98;72.76;100935.28;6248184;22;47275;-86
2022/06/20 04:24:15;;;;;;;;;27.25;26.75;;;;;16.95;73.35;100939.84;6247773;22;45744;-86
2022/06/20 04:26:47;;;;;;;;;31.25;24.75;;;;;16.96;73.29;100945.03;6221618;22;45365;-86
2022/06/20 04:29:21;;;;;;;;;31.75;28.75;;;;;16.97;73.54;100953.78;6248307;22;45513;-86
2022/06/20 04:32:05;;;;;;;;;35.75;27.75;;;;;16.98;73.93;100948.44;6221615;22;46081;-86
2022/06/20 04:34:44;;;;;;;;;33.75;26.50;;;;;17.01;73.52;100945.66;6247301;22;45224;-85
2022/06/20 04:37:36;;;;;;;;;32.75;30.50;;;;;17.03;73.71;100950.81;6247641;22;45307;-86
2022/06/20 04:40:04;;;;;;;;;31.75;26.50;;;;;17.06;72.90;100955.06;6246752;22;45676;-86
2022/06/20 04:42:41;;;;;;;;;32.50;28.25;;;;;17.10;73.67;100953.97;6245713;22;47219;-86
2022/06/20 04:45:34;;;;;;;;;32.25;27.00;;;;;17.16;73.45;100951.00;6273837;22;45813;-86
2022/06/20 04:48:06;;;;;;;;;30.50;26.75;;;;;17.17;73.59;100958.81;6209023;22;45564;-87
2022/06/20 04:50:33;;;;;;;;;30.25;28.00;;;;;17.21;72.90;100967.41;6159080;22;45485;-85
2022/06/20 04:53:05;;;;;;;;;34.75;27.50;;;;;17.24;73.10;100976.94;6209795;22;45340;-86
2022/06/20 04:55:32;;;;;;;;;29.25;24.00;;;;;17.26;73.62;100988.22;6184287;22;45355;-86
2022/06/20 04:57:59;;;;;;;;;28.75;24.75;;;;;17.30;73.47;100993.22;6184165;22;45383;-86
2022/06/20 05:00:29;;;;;;;;;28.50;25.00;;;;;17.33;73.20;100993.06;6183952;22;45448;-87
2022/06/20 05:02:57;;;;;;;;;28.00;25.25;;;;;17.37;72.25;100997.25;6158857;22;46217;-87
2022/06/20 05:05:27;;;;;;;;;29.50;23.25;;;;;17.39;72.04;101002.44;6184358;22;45289;-86
2022/06/20 05:07:55;;;;;;;;;25.50;22.75;;;;;17.37;72.61;101001.66;6184598;22;45356;-87
2022/06/20 05:10:35;;;;;;;;;28.75;24.25;;;;;17.36;72.37;100998.16;6208824;22;45263;-86
2022/06/20 05:13:08;;;;;;;;;28.75;26.25;;;;;17.37;72.66;100993.75;6184172;22;46401;-86
2022/06/20 05:15:43;;;;;;;;;22.00;17.75;;;;;17.35;71.65;101000.91;6209584;22;45209;-86
2022/06/20 05:18:31;;;;;;;;;25.25;21.25;;;;;17.31;72.00;101000.22;6209685;22;45356;-86
2022/06/20 05:21:01;;;;;;;;;24.75;20.25;;;;;17.30;72.50;101008.19;6184533;22;45374;-87
2022/06/20 05:23:31;;;;;;;;;25.50;22.25;;;;;17.31;72.11;100999.34;6209152;22;46832;-86
2022/06/20 05:25:59;;;;;;;;;25.00;22.00;;;;;17.31;72.39;100999.34;6245057;22;45330;-87
2022/06/20 05:28:25;;;;;;;;;22.50;20.00;;;;;17.32;71.84;100995.78;6246271;22;45248;-87
2022/06/20 05:30:50;;;;;;;;;21.50;20.75;;;;;17.32;72.35;101001.88;6245987;22;45499;-87
2022/06/20 05:33:22;;;;;;;;;23.75;19.25;;;;;17.35;72.57;101011.41;6273164;22;47326;-88
2022/06/20 05:35:52;;;;;;;;;22.00;19.00;;;;;17.37;71.87;101020.91;6273426;22;45811;-87
2022/06/20 05:38:27;;;;;;;;;19.25;17.00;;;;;17.38;71.82;101016.50;6274235;22;45261;-86
2022/06/20 05:40:58;;;;;;;;;19.25;17.25;;;;;17.39;72.05;101026.09;6245680;22;45515;-87
2022/06/20 05:43:23;;;;;;;;;20.50;16.00;;;;;17.39;71.15;101031.38;6246939;22;46437;-87
2022/06/20 05:45:51;;;;;;;;;19.25;16.50;;;;;17.38;71.13;101032.28;6220703;22;45346;-87
2022/06/20 05:48:17;;;;;;;;;18.50;16.25;;;;;17.36;71.67;101042.88;6246870;22;45290;-87
2022/06/20 05:50:56;;;;;;;;;16.25;12.00;;;;;17.34;70.82;101044.75;6246465;22;45319;-87
2022/06/20 05:53:44;;;;;;;;;21.00;16.00;;;;;17.30;70.76;101047.63;6246379;22;47108;-86
2022/06/20 05:56:20;;;;;;;;;16.00;15.00;;;;;17.28;71.29;101050.34;6246350;22;45272;-87
2022/06/20 05:58:46;;;;;;;;;17.00;13.50;;;;;17.27;71.03;101058.31;6248109;22;45348;-87
2022/06/20 06:01:16;;;;;;;;;16.75;14.75;;;;;17.26;71.51;101049.56;6246934;22;52600;-86
2022/06/20 06:04:02;;;;;;;;;17.75;16.00;;;;;17.32;71.85;101048.41;6247499;22;47290;-85
2022/06/20 06:06:41;;;;;;;;;14.75;14.75;;;;;17.40;70.92;101052.34;6261189;22;45228;-87
2022/06/20 06:09:15;;;;;;;;;16.50;15.50;;;;;17.41;71.34;101063.72;6256716;22;45306;-87
2022/06/20 06:11:54;;;;;;;;;18.75;15.25;;;;;17.38;71.20;101069.13;6267478;22;44802;-87
2022/06/20 06:14:38;;;;;;;;;18.50;14.50;;;;;17.39;71.40;101076.09;6255514;22;46396;-85
2022/06/20 06:17:11;;;;;;;;;18.00;14.50;;;;;17.42;71.37;101094.34;6252929;22;45715;-86
2022/06/20 06:19:52;;;;;;;;;22.25;16.75;;;;;17.35;70.65;101095.63;6282750;22;45377;-86
2022/06/20 06:22:24;;;;;;;;;13.50;12.75;;;;;17.29;70.85;101090.66;6261208;22;45379;-89
2022/06/20 06:24:54;;;;;;;;;12.50;11.50;;;;;17.25;69.98;101099.63;6261616;22;46183;-88
2022/06/20 06:27:23;;;;;;;;;15.75;14.50;;;;;17.22;70.28;101109.38;6249371;22;45731;-86
2022/06/20 06:29:50;;;;;;;;;15.50;14.75;;;;;17.20;70.51;101111.25;6247902;22;45542;-86
2022/06/20 06:32:27;;;;;;;;;11.25;11.25;;;;;17.14;70.12;101105.44;6247716;22;45252;-86
2022/06/20 06:35:03;;;;;;;;;13.00;11.00;;;;;17.12;70.75;101109.94;6276185;22;45377;-87
2022/06/20 06:37:44;;;;;;;;;13.75;12.25;;;;;17.09;70.06;101103.06;6273929;22;45315;-86
2022/06/20 06:40:12;;;;;;;;;19.75;13.75;;;;;17.07;70.44;101111.94;6248042;22;45280;-85
2022/06/20 06:42:38;;;;;;;;;14.00;10.50;;;;;17.02;70.29;101110.38;6246878;22;45429;-86
2022/06/20 06:45:05;;;;;;;;;15.50;12.75;;;;;17.01;70.25;101124.47;6246369;22;52922;-86
2022/06/20 06:47:39;;;;;;;;;18.25;14.50;;;;;17.03;71.50;101124.38;6221028;22;45763;-85
2022/06/20 06:50:20;;;;;;;;;17.50;15.00;;;;;17.09;70.90;101125.88;6247157;22;45403;-85
2022/06/20 06:52:59;;;;;;;;;14.00;11.25;;;;;17.12;70.18;101121.28;6247565;22;45526;-87
2022/06/20 06:55:33;;;;;;;;;12.50;11.50;;;;;17.12;70.38;101117.81;6251015;22;46484;-86
2022/06/20 06:58:23;;;;;;;;;13.50;12.00;;;;;17.13;69.84;101136.16;6248915;22;45388;-86
2022/06/20 07:01:12;;;;;;;;;16.25;14.00;;;;;17.16;70.47;101150.91;6274966;22;45247;-84
2022/06/20 07:03:44;;;;;;;;;15.25;13.00;;;;;17.20;70.29;101147.22;6247411;22;45268;-85
2022/06/20 07:06:16;;;;;;;;;17.00;13.00;;;;;17.22;69.52;101146.22;6247290;22;45603;-85
2022/06/20 07:09:08;;;;;;;;;17.50;13.75;;;;;17.24;69.81;101150.56;6247172;22;45695;-84
2022/06/20 07:11:39;;;;;;;;;19.75;14.00;;;;;17.28;70.17;101165.25;6275091;22;45638;-87
2022/06/20 07:14:22;;;;;;;;;19.50;14.00;;;;;17.35;69.59;101162.25;6246583;22;45276;-87
2022/06/20 07:17:11;;;;;;;;;20.50;17.00;;;;;17.40;69.81;101165.50;6270366;22;46494;-87
2022/06/20 07:19:41;;;;;;;;;19.75;15.75;;;;;17.38;69.13;101171.75;6241730;22;45800;-87
2022/06/20 07:22:15;;;;;;;;;23.75;19.50;;;;;17.33;69.67;101165.88;6245531;22;45265;-87
2022/06/20 07:24:41;;;;;;;;;17.00;16.00;;;;;17.34;69.18;101170.19;6246292;22;45286;-87
2022/06/20 07:27:28;;;;;;;;;24.50;15.00;;;;;17.33;68.48;101168.53;6273680;22;46567;-87
2022/06/20 07:30:19;;;;;;;;;19.75;16.75;;;;;17.29;68.69;101185.38;6273986;22;45239;-87
2022/06/20 07:32:55;;;;;;;;;18.25;18.00;;;;;17.24;68.43;101190.03;6273009;22;45420;-87
2022/06/20 07:35:25;;;;;;;;;20.50;15.25;;;;;17.21;69.67;101189.22;6245738;22;45337;-86
2022/06/20 07:38:11;;;;;;;;;22.25;19.50;;;;;17.21;69.08;101191.00;6246106;22;46533;-87
2022/06/20 07:40:45;;;;;;;;;23.75;20.50;;;;;17.21;69.50;101197.09;6148179;23;45500;-87
2022/06/20 07:43:28;;;;;;;;;18.50;17.00;;;;;17.23;68.78;101204.94;6148830;23;45555;-85
2022/06/20 07:45:54;;;;;;;;;17.75;15.75;;;;;17.21;69.05;101204.16;6148878;23;45439;-85
2022/06/20 07:48:31;;;;;;;;;20.25;18.00;;;;;17.19;68.75;101198.13;6123041;23;54151;-85
2022/06/20 07:51:06;;;;;;;;;22.50;20.75;;;;;17.12;68.30;101205.47;6123372;23;45281;-85
2022/06/20 07:53:50;;;;;;;;;26.75;20.25;;;;;17.05;68.81;101200.56;6148936;23;45408;-85
2022/06/20 07:56:20;;;;;;;;;21.25;18.00;;;;;17.02;68.74;101204.22;6148949;23;45358;-85
2022/06/20 07:58:52;;;;;;;;;24.00;16.50;;;;;17.02;69.16;101209.47;6148274;23;45410;-86
2022/06/20 08:01:24;;;;;;;;;20.75;17.25;;;;;17.06;69.30;101211.03;6124046;23;45944;-85
2022/06/20 08:03:57;;;;;;;;;22.50;16.00;;;;;17.08;68.75;101206.53;6148626;23;45445;-86
2022/06/20 08:06:51;;;;;;;;;26.50;18.00;;;;;17.08;68.24;101216.22;6122228;23;45394;-86
2022/06/20 08:09:24;;;;;;;;;22.25;17.00;;;;;17.05;67.86;101218.97;6123477;23;45334;-89
2022/06/20 08:12:06;;;;;;;;;21.75;16.00;;;;;17.05;68.63;101222.50;6149815;23;46095;-88
2022/06/20 08:15:03;;;;;;;;;;;;;;;;;;;;;
2022/06/20 08:17:32;;;;;;;;;19.00;15.00;;;;;17.22;69.00;101216.41;6171839;22;70558;-88
2022/06/20 08:20:01;;;;;;;;;20.00;17.50;;;;;17.36;68.63;101218.34;6243506;22;46248;-87
2022/06/20 08:22:39;;;;;;;;;19.00;17.50;;;;;17.49;68.63;101211.53;6222205;22;45980;-88
2022/06/20 08:25:24;;;;;;;;;19.50;15.00;;;;;17.65;67.93;101205.50;6246699;22;45350;-89
2022/06/20 08:28:11;;;;;;;;;23.50;15.00;;;;;17.71;67.98;101213.91;6266135;22;45526;-87
2022/06/20 08:30:40;;;;;;;;;21.75;17.75;;;;;17.78;67.50;101212.69;6243431;22;45331;-84
2022/06/20 08:33:16;;;;;;;;;21.25;14.50;;;;;17.89;67.58;101208.69;6267336;22;45299;-85
2022/06/20 08:35:47;;;;;;;;;22.75;15.00;;;;;17.95;66.83;101208.34;6245794;22;45311;-86
2022/06/20 08:38:27;;;;;;;;;16.75;16.25;;;;;17.99;67.07;101217.78;6244503;22;45318;-84
2022/06/20 08:41:09;;;;;;;;;15.00;15.00;;;;;18.04;66.74;101210.50;6244767;22;45613;-86
2022/06/20 08:43:52;;;;;;;;;19.75;15.75;;;;;18.12;66.99;101216.22;6273936;22;45159;-86
2022/06/20 08:46:22;;;;;;;;;18.00;15.00;;;;;18.21;67.15;101206.97;6248310;22;45363;-85
2022/06/20 08:49:32;;;;;;;;;15.50;14.25;;;;;18.28;66.12;101208.34;6245256;22;45553;-86
2022/06/20 08:52:18;;;;;;;;;15.50;14.75;;;;;18.27;65.66;101211.91;6270857;22;47662;-87
2022/06/20 08:54:44;;;;;;;;;13.75;13.75;;;;;18.25;65.34;101226.94;6272680;22;45179;-86
2022/06/20 08:57:22;;;;;;;;;18.67;14.00;;;;;18.25;65.59;101226.09;6273062;22;45306;-87
2022/06/20 09:00:09;;;;;;;;;16.25;14.75;;;;;18.25;64.68;101231.38;6273126;22;45518;-88
2022/06/20 09:02:58;;;;;;;;;20.00;16.25;;;;;18.21;65.31;101235.97;6272384;22;45408;-87
2022/06/20 09:05:51;;;;;;;;;15.50;15.00;;;;;18.17;64.94;101240.53;6270493;22;45636;-87
2022/06/20 09:08:26;;;;;;;;;17.25;15.50;;;;;18.14;65.30;101235.41;6245672;22;45323;-86
2022/06/20 09:11:06;;;;;;;;;23.50;15.75;;;;;18.15;64.86;101247.66;6245845;22;45965;-87
2022/06/20 09:13:42;;;;;;;;;18.75;15.00;;;;;18.17;65.33;101258.97;6245026;22;45461;-86
2022/06/20 09:16:48;;;;;;;;;21.00;15.00;;;;;18.19;64.83;101259.75;6272822;22;45365;-87
2022/06/20 09:19:31;;;;;;;;;20.75;18.00;;;;;18.18;64.59;101259.81;6148631;23;45370;-85
2022/06/20 09:22:08;;;;;;;;;19.00;17.00;;;;;18.17;65.39;101268.69;6148083;23;45317;-86
2022/06/20 09:24:47;;;;;;;;;24.00;16.25;;;;;18.18;64.75;101254.56;6148206;23;46965;-85
2022/06/20 09:27:37;;;;;;;;;16.00;14.50;;;;;18.22;64.76;101260.50;6123279;23;45763;-86
2022/06/20 09:30:07;;;;;;;;;21.50;15.50;;;;;18.30;64.92;101256.56;6146673;23;45973;-86
2022/06/20 09:32:39;;;;;;;;;19.50;18.00;;;;;18.41;64.83;101257.78;6147572;23;45459;-86
2022/06/20 09:35:43;;;;;;;;;19.50;14.75;;;;;18.54;64.54;101266.72;6147644;23;45420;-86
2022/06/20 09:38:46;;;;;;;;;16.75;16.50;;;;;18.73;64.61;101274.47;6148010;23;45853;-86
2022/06/20 09:41:20;;;;;;;;;17.50;14.50;;;;;18.88;63.91;101283.38;6147646;23;45368;-85
2022/06/20 09:44:09;;;;;;;;;16.00;14.00;;;;;18.96;63.24;101289.06;6148489;23;45443;-86
2022/06/20 09:47:13;;;;;;;;;20.25;16.50;;;;;19.08;63.17;101282.25;6123338;23;45428;-86
2022/06/20 09:49:44;;;;;;;;;17.00;14.25;;;;;19.13;62.54;101285.50;6045289;23;45368;-86
2022/06/20 09:52:22;;;;;;;;;20.50;18.50;;;;;19.11;63.10;101275.03;6088901;23;45306;-83
2022/06/20 09:55:25;;;;;;;;;20.00;15.75;;;;;19.25;63.24;101276.88;6058054;23;45508;-86
2022/06/20 09:58:11;;;;;;;;;20.50;17.00;;;;;19.46;61.80;101284.50;5976520;23;47074;-86
2022/06/20 10:00:48;;;;;;;;;15.75;13.50;;;;;19.56;63.03;101280.41;6002056;23;45896;-88
2022/06/20 10:03:43;;;;;;;;;21.00;14.50;;;;;19.71;62.39;101287.41;6002773;23;45356;-86
2022/06/20 10:06:16;;;;;;;;;16.25;14.75;;;;;19.81;61.48;101290.41;5998596;23;45319;-82
2022/06/20 10:09:02;;;;;;;;;14.75;12.50;;;;;19.89;61.71;101287.28;6002595;23;45447;-84
2022/06/20 10:11:49;;;;;;;;;16.00;13.75;;;;;20.05;61.32;101290.72;6002244;23;45455;-85
2022/06/20 10:14:24;;;;;;;;;15.50;14.00;;;;;20.22;61.04;101286.22;6003081;23;45432;-82
2022/06/20 10:17:12;;;;;;;;;17.50;14.00;;;;;20.40;60.18;101287.75;6002428;23;45410;-83
2022/06/20 10:19:43;;;;;;;;;19.00;14.25;;;;;20.57;60.87;101288.50;6002962;23;46158;-84
2022/06/20 10:22:37;;;;;;;;;11.00;11.00;;;;;20.81;59.01;101286.97;6003159;23;45320;-84
2022/06/20 10:25:25;;;;;;;;;15.00;12.00;;;;;21.13;58.91;101280.56;6037060;23;45300;-86
2022/06/20 10:27:52;;;;;;;;;12.25;12.25;;;;;21.42;58.41;101284.81;6037320;23;45418;-83
2022/06/20 10:30:21;;;;;;;;;16.00;12.25;;;;;21.55;57.21;101287.53;6035819;23;46347;-83
2022/06/20 10:32:56;;;;;;;;;12.50;11.75;;;;;21.71;57.63;101281.19;6038510;23;45397;-84
2022/06/20 10:35:33;;;;;;;;;14.75;10.50;;;;;21.87;56.89;101294.28;6158957;22;45362;-84
2022/06/20 10:38:07;;;;;;;;;11.00;10.00;;;;;22.02;56.07;101298.53;6244765;22;45604;-84
2022/06/20 10:40:40;;;;;;;;;11.00;11.00;;;;;22.23;56.36;101291.75;6243099;22;46189;-84
2022/06/20 10:43:09;;;;;;;;;14.50;12.25;;;;;22.50;54.50;101289.97;6214694;22;45660;-85
2022/06/20 10:45:59;;;;;;;;;14.00;11.00;;;;;22.63;54.94;101290.78;6213553;22;45717;-84
2022/06/20 10:48:35;;;;;;;;;13.50;11.25;;;;;22.73;54.33;101296.28;6250070;22;45223;-86
2022/06/20 10:51:09;;;;;;;;;11.75;10.50;;;;;22.75;53.91;101289.91;6244219;22;47127;-87
2022/06/20 10:53:53;;;;;;;;;11.75;11.00;;;;;22.79;54.15;101290.53;6245341;22;45292;-86
2022/06/20 10:56:45;;;;;;;;;12.50;12.00;;;;;22.78;53.33;101288.84;6219064;22;45354;-86
2022/06/20 10:59:41;;;;;;;;;13.00;11.00;;;;;22.73;53.88;101297.16;6273407;22;45251;-85
2022/06/20 11:02:54;;;;;;;;;15.00;11.00;;;;;22.71;53.53;101300.84;6273400;22;45432;-87
2022/06/20 11:05:22;;;;;;;;;15.00;11.25;;;;;22.73;53.33;101304.22;6274099;22;45295;-86
2022/06/20 11:08:26;;;;;;;;;14.25;10.25;;;;;22.85;53.38;101305.19;6246911;22;45279;-87
2022/06/20 11:11:15;;;;;;;;;11.75;11.50;;;;;22.93;52.90;101308.97;6274580;22;45411;-86
2022/06/20 11:13:59;;;;;;;;;13.00;9.25;;;;;22.96;52.35;101307.91;6273223;22;45526;-88
2022/06/20 11:16:32;;;;;;;;;12.25;10.75;;;;;23.01;52.41;101313.72;6272931;22;45838;-85
2022/06/20 11:19:10;;;;;;;;;13.50;9.00;;;;;23.30;51.91;101308.97;6249121;22;45261;-86
2022/06/20 11:21:35;;;;;;;;;11.75;10.00;;;;;23.68;52.02;101312.38;6275109;22;45465;-86
2022/06/20 11:24:17;;;;;;;;;14.67;12.00;;;;;24.08;51.47;101307.56;6246143;22;46941;-86
2022/06/20 11:26:51;;;;;;;;;14.25;11.50;;;;;24.48;50.69;101303.59;6275667;22;45255;-86
2022/06/20 11:29:42;;;;;;;;;12.50;9.75;;;;;24.66;49.56;101315.47;6272999;22;45306;-86
2022/06/20 11:32:38;;;;;;;;;12.75;10.00;;;;;24.70;48.84;101314.28;6245686;22;45665;-85
2022/06/20 11:35:30;;;;;;;;;8.50;8.00;;;;;24.71;49.56;101313.31;6273600;22;45747;-86
2022/06/20 11:38:17;;;;;;;;;8.00;8.00;;;;;24.53;48.73;101314.75;6264760;22;45350;-85
2022/06/20 11:40:51;;;;;;;;;11.25;9.75;;;;;24.40;48.94;101317.50;6276091;22;45306;-84
2022/06/20 11:43:45;;;;;;;;;10.75;10.00;;;;;24.33;49.43;101311.84;6276580;22;45372;-86
2022/06/20 11:46:26;;;;;;;;;13.00;9.75;;;;;24.46;49.15;101317.06;6275139;22;45266;-85
2022/06/20 11:49:22;;;;;;;;;10.50;9.00;;;;;24.66;48.83;101315.47;6276845;22;45725;-86
2022/06/20 11:52:01;;;;;;;;;9.00;7.50;;;;;24.97;48.70;101315.69;6245589;22;45427;-83
2022/06/20 11:54:36;;;;;;;;;13.75;10.75;;;;;25.21;47.92;101314.69;6275765;22;45337;-83
2022/06/20 11:57:20;;;;;;;;;8.50;8.00;;;;;25.42;47.21;101326.25;6274065;22;46540;-82
2022/06/20 12:00:07;;;;;;;;;11.25;9.00;;;;;25.68;47.12;101309.91;6247823;22;45266;-83